Time;durP1;ratioP1;P1;durP2;ratioP2;P2;SDS_P1;SDS_P2;PMS_P1;PMS_P2;Temp;Humidity;BMP_temperature;BMP_pressure;BME280_temperature;BME280_humidity;BME280_pressure;Samples;Min_cycle;Max_cycle;Signal;HPM_P1;HPM_P2
2023/07/25 00:00:11;;;;;;;20.73;9.55;;;717.10;1894.40;;;;;;5092113;28;20051;-55
2023/07/25 00:02:37;;;;;;;26.70;9.27;;;717.20;1894.40;;;;;;5092457;28;20082;-55
2023/07/25 00:05:04;;;;;;;21.02;9.18;;;717.50;1843.20;;;;;;5092013;28;20059;-55
2023/07/25 00:07:30;;;;;;;20.08;8.18;;;717.50;1868.80;;;;;;5092245;28;20016;-54
2023/07/25 00:09:56;;;;;;;29.15;8.82;;;742.40;1817.60;;;;;;5092355;28;20039;-55
2023/07/25 00:12:23;;;;;;;15.23;7.72;;;742.50;1766.40;;;;;;5092928;28;20024;-54
2023/07/25 00:14:49;;;;;;;16.42;8.05;;;742.80;1740.80;;;;;;5092038;28;20382;-54
2023/07/25 00:17:14;;;;;;;19.88;8.80;;;743.00;1715.20;;;;;;5092153;28;20047;-55
2023/07/25 00:19:40;;;;;;;14.88;8.50;;;743.10;1689.60;;;;;;5091797;28;20068;-54
2023/07/25 00:22:06;;;;;;;20.38;9.02;;;743.10;1664.00;;;;;;5092423;28;20091;-61
2023/07/25 00:24:31;;;;;;;17.73;9.27;;;743.30;1664.00;;;;;;5092003;28;20385;-56
2023/07/25 00:26:57;;;;;;;19.02;8.48;;;768.10;1612.80;;;;;;5091963;28;20027;-59
2023/07/25 00:29:23;;;;;;;16.45;7.88;;;743.30;1689.60;;;;;;5092260;28;20028;-55
2023/07/25 00:31:48;;;;;;;21.52;7.93;;;743.20;1689.60;;;;;;5091807;28;20069;-55
2023/07/25 00:34:14;;;;;;;15.80;8.15;;;743.30;1664.00;;;;;;5092003;28;20032;-54
2023/07/25 00:36:40;;;;;;;14.13;7.78;;;743.10;1715.20;;;;;;5091368;28;20481;-55
2023/07/25 00:39:06;;;;;;;19.90;8.65;;;743.10;1638.40;;;;;;5091572;28;20043;-54
2023/07/25 00:41:31;;;;;;;19.65;8.20;;;768.10;1612.80;;;;;;5091516;28;20016;-54
2023/07/25 00:43:57;;;;;;;21.60;8.80;;;768.20;1587.20;;;;;;5091551;28;20059;-55
2023/07/25 00:46:23;;;;;;;21.40;8.15;;;768.30;1561.60;;;;;;5090848;28;20106;-53
2023/07/25 00:48:50;;;;;;;16.70;7.82;;;768.40;1561.60;;;;;;5091442;28;20052;-54
2023/07/25 00:51:16;;;;;;;19.98;8.13;;;768.50;1561.60;;;;;;5091605;28;20031;-53
2023/07/25 00:53:42;;;;;;;17.85;9.05;;;768.60;1561.60;;;;;;5091400;28;20032;-56
2023/07/25 00:56:09;;;;;;;22.88;8.57;;;768.70;1561.60;;;;;;5091800;28;20063;-54
2023/07/25 00:58:35;;;;;;;19.30;8.68;;;768.80;1536.00;;;;;;5091299;28;20040;-55
2023/07/25 01:01:07;;;;;;;19.95;8.70;;;793.60;1561.60;;;;;;5091041;28;20405;-55
2023/07/25 01:03:36;;;;;;;20.42;7.72;;;793.70;1561.60;;;;;;5091238;28;20031;-55
2023/07/25 01:06:03;;;;;;;24.35;8.70;;;793.70;1561.60;;;;;;5091239;28;20409;-55
2023/07/25 01:08:29;;;;;;;20.23;7.47;;;793.80;1536.00;;;;;;5090926;28;20024;-54
2023/07/25 01:10:55;;;;;;;16.65;8.00;;;;;;;;;;5091205;28;20066;-53
2023/07/25 01:13:22;;;;;;;20.10;8.73;;;793.90;1510.40;;;;;;5091221;28;20020;-54
2023/07/25 01:15:49;;;;;;;28.00;8.95;;;794.00;1510.40;;;;;;5090794;28;20086;-55
2023/07/25 01:18:16;;;;;;;24.85;9.38;;;794.00;1510.40;;;;;;5091103;28;20031;-54
2023/07/25 01:20:42;;;;;;;17.10;8.25;;;794.00;1510.40;;;;;;5091029;28;20039;-55
2023/07/25 01:23:10;;;;;;;18.13;8.20;;;794.20;1510.40;;;;;;5090760;28;20115;-54
2023/07/25 01:25:36;;;;;;;16.35;7.82;;;794.20;1510.40;;;;;;5091032;28;20033;-54
2023/07/25 01:28:02;;;;;;;18.48;7.57;;;794.20;1510.40;;;;;;5090749;28;20035;-57
2023/07/25 01:30:27;;;;;;;21.25;8.80;;;794.20;1510.40;;;;;;5090354;28;20467;-55
2023/07/25 01:32:54;;;;;;;18.10;7.85;;;794.20;1510.40;;;;;;5090756;28;20031;-60
2023/07/25 01:35:20;;;;;;;22.38;9.00;;;794.20;1510.40;;;;;;5090678;28;20016;-54
2023/07/25 01:37:46;;;;;;;28.27;9.43;;;794.20;1484.80;;;;;;5090693;28;20032;-55
2023/07/25 01:40:12;;;;;;;18.60;8.80;;;794.30;1484.80;;;;;;5090586;28;20075;-55
2023/07/25 01:42:37;;;;;;;27.55;8.80;;;794.30;1484.80;;;;;;5090436;28;20513;-55
2023/07/25 01:45:03;;;;;;;23.45;8.88;;;794.50;1484.80;;;;;;5090575;28;20028;-54
2023/07/25 01:47:29;;;;;;;16.27;8.20;;;794.50;1484.80;;;;;;5090260;28;20051;-54
2023/07/25 01:49:55;;;;;;;16.05;7.38;;;794.50;1484.80;;;;;;5090720;28;20024;-54
2023/07/25 01:52:21;;;;;;;14.15;7.43;;;794.50;1484.80;;;;;;5090294;28;20681;-58
2023/07/25 01:54:48;;;;;;;17.20;7.85;;;794.40;1484.80;;;;;;5089806;28;20059;-58
2023/07/25 01:57:14;;;;;;;20.33;7.93;;;794.40;1484.80;;;;;;5089174;28;20063;-54
2023/07/25 01:59:40;;;;;;;16.40;8.68;;;794.30;1510.40;;;;;;5090107;28;20075;-54
2023/07/25 02:02:06;;;;;;;21.75;9.05;;;794.30;1510.40;;;;;;5090477;28;20544;-54
2023/07/25 02:04:32;;;;;;;20.73;8.82;;;794.20;1510.40;;;;;;5090246;28;20036;-54
2023/07/25 02:06:58;;;;;;;20.10;8.13;;;794.20;1510.40;;;;;;5089854;28;20039;-55
2023/07/25 02:09:23;;;;;;;16.00;8.93;;;794.20;1510.40;;;;;;5089996;28;20075;-60
2023/07/25 02:11:49;;;;;;;18.75;7.82;;;794.20;1510.40;;;;;;5090137;28;20043;-54
2023/07/25 02:14:15;;;;;;;21.15;9.55;;;794.20;1510.40;;;;;;5089950;28;20063;-53
2023/07/25 02:16:40;;;;;;;16.05;8.93;;;794.00;1536.00;;;;;;5089793;28;20028;-57
2023/07/25 02:19:06;;;;;;;19.27;9.40;;;793.80;1561.60;;;;;;5090176;28;20128;-54
2023/07/25 02:21:33;;;;;;;22.83;12.02;;;793.70;1587.20;;;;;;5089908;28;20459;-55
2023/07/25 02:23:58;;;;;;;18.85;10.23;;;768.90;1587.20;;;;;;5089328;28;20024;-54
2023/07/25 02:26:24;;;;;;;21.23;9.23;;;768.90;1587.20;;;;;;5089812;28;20043;-55
2023/07/25 02:28:50;;;;;;;16.80;9.02;;;768.90;1561.60;;;;;;5089362;28;20107;-58
2023/07/25 02:31:15;;;;;;;20.35;8.43;;;768.90;1561.60;;;;;;5089767;28;20035;-55
2023/07/25 02:33:41;;;;;;;15.98;8.18;;;768.90;1561.60;;;;;;5089484;28;20103;-55
2023/07/25 02:36:07;;;;;;;23.85;8.45;;;793.60;1561.60;;;;;;5089719;28;20051;-55
2023/07/25 02:38:32;;;;;;;17.00;7.93;;;793.70;1561.60;;;;;;5089605;28;20028;-62
2023/07/25 02:40:58;;;;;;;13.98;7.30;;;793.70;1536.00;;;;;;5089069;28;20082;-54
2023/07/25 02:43:24;;;;;;;19.60;7.88;;;793.90;1536.00;;;;;;5089848;28;20070;-55
2023/07/25 02:45:52;;;;;;;19.73;8.95;;;793.70;1612.80;;;;;;5089229;28;20020;-54
2023/07/25 02:48:19;;;;;;;15.80;8.15;;;768.90;1587.20;;;;;;5089486;28;20352;-55
2023/07/25 02:50:45;;;;;;;23.27;8.85;;;768.90;1587.20;;;;;;5089442;28;20051;-55
2023/07/25 02:53:11;;;;;;;15.50;8.18;;;768.80;1612.80;;;;;;5089299;28;20382;-55
2023/07/25 02:55:37;;;;;;;16.23;8.05;;;768.70;1612.80;;;;;;5089299;28;20054;-55
2023/07/25 02:58:03;;;;;;;21.55;8.43;;;768.60;1587.20;;;;;;5089448;28;20028;-54
2023/07/25 03:00:29;;;;;;;17.83;8.50;;;768.60;1587.20;;;;;;5088858;28;20119;-54
2023/07/25 03:02:55;;;;;;;21.02;9.57;;;768.60;1587.20;;;;;;5089328;28;20020;-54
2023/07/25 03:05:21;;;;;;;17.90;9.05;;;768.60;1587.20;;;;;;5089151;28;20077;-54
2023/07/25 03:07:47;;;;;;;27.80;8.55;;;768.60;1612.80;;;;;;5089357;28;20582;-57
2023/07/25 03:10:13;;;;;;;15.73;9.10;;;768.60;1587.20;;;;;;5088826;28;20390;-55
2023/07/25 03:12:38;;;;;;;23.38;8.50;;;768.50;1612.80;;;;;;5089046;28;20027;-55
2023/07/25 03:15:05;;;;;;;16.95;8.98;;;768.40;1612.80;;;;;;5088948;28;20042;-55
2023/07/25 03:17:31;;;;;;;21.88;7.80;;;768.40;1638.40;;;;;;5089025;28;20020;-54
2023/07/25 03:19:57;;;;;;;13.02;8.23;;;768.20;1664.00;;;;;;5088499;28;20083;-55
2023/07/25 03:22:23;;;;;;;14.98;7.65;;;768.10;1664.00;;;;;;5089211;28;20048;-54
2023/07/25 03:24:49;;;;;;;21.98;9.07;;;768.00;1689.60;;;;;;5088491;28;20428;-55
2023/07/25 03:27:16;;;;;;;17.35;8.85;;;743.20;1715.20;;;;;;5089231;28;20140;-55
2023/07/25 03:29:42;;;;;;;16.27;8.70;;;743.10;1689.60;;;;;;5088893;28;20052;-55
2023/07/25 03:32:08;;;;;;;17.83;8.27;;;743.10;1689.60;;;;;;5088729;28;20051;-55
2023/07/25 03:34:34;;;;;;;18.10;8.07;;;742.80;1766.40;;;;;;5089002;28;20034;-55
2023/07/25 03:36:59;;;;;;;22.73;8.98;;;743.00;1715.20;;;;;;5088798;28;20482;-54
2023/07/25 03:39:25;;;;;;;23.70;8.55;;;742.80;1792.00;;;;;;5088578;28;20036;-55
2023/07/25 03:41:50;;;;;;;20.70;8.32;;;742.80;1740.80;;;;;;5088441;28;20457;-55
2023/07/25 03:44:20;;;;;;;18.10;8.90;;;742.90;1740.80;;;;;;5089091;28;20082;-55
2023/07/25 03:46:46;;;;;;;22.13;8.85;;;742.80;1740.80;;;;;;5088785;28;20374;-55
2023/07/25 03:49:12;;;;;;;21.55;8.68;;;742.90;1715.20;;;;;;5088249;28;20028;-54
2023/07/25 03:51:38;;;;;;;13.63;7.65;;;743.00;1689.60;;;;;;5075947;28;20367;-54
2023/07/25 03:54:05;;;;;;;20.92;8.77;;;743.10;1689.60;;;;;;5068289;28;20024;-54
2023/07/25 03:56:31;;;;;;;18.75;8.52;;;743.20;1689.60;;;;;;5068375;28;20024;-54
2023/07/25 03:58:57;;;;;;;20.13;9.80;;;743.20;1817.60;;;;;;5068074;28;20029;-55
2023/07/25 04:01:23;;;;;;;18.40;8.32;;;743.30;1689.60;;;;;;5081342;28;20127;-53
2023/07/25 04:03:49;;;;;;;26.55;14.30;;;743.30;1766.40;;;;;;5068192;28;20528;-60
2023/07/25 04:06:14;;;;;;;34.63;17.15;;;743.30;1740.80;;;;;;5081788;28;20390;-53
2023/07/25 04:08:40;;;;;;;30.83;22.25;;;768.10;1715.20;;;;;;5068164;28;20024;-55
2023/07/25 04:11:06;;;;;;;27.75;16.95;;;768.30;1766.40;;;;;;5068191;28;20020;-54
2023/07/25 04:13:31;;;;;;;20.48;10.25;;;768.10;1792.00;;;;;;5068701;28;20489;-56
2023/07/25 04:15:57;;;;;;;15.88;8.80;;;743.30;1766.40;;;;;;5067963;28;20024;-62
2023/07/25 04:18:23;;;;;;;20.67;9.45;;;768.10;1766.40;;;;;;5070343;28;20360;-53
2023/07/25 04:20:48;;;;;;;22.95;10.07;;;743.30;1792.00;;;;;;5080640;28;20053;-54
2023/07/25 04:23:15;;;;;;;14.48;8.82;;;743.30;1792.00;;;;;;5078487;28;20023;-54
2023/07/25 04:25:41;;;;;;;16.00;8.57;;;768.10;1792.00;;;;;;5078224;28;20527;-55
2023/07/25 04:28:08;;;;;;;26.80;9.75;;;768.30;1817.60;;;;;;5087585;28;20103;-55
2023/07/25 04:30:33;;;;;;;23.48;10.30;;;768.40;1792.00;;;;;;5082573;28;20029;-61
2023/07/25 04:32:59;;;;;;;21.25;9.68;;;768.50;1766.40;;;;;;5091686;28;20021;-55
2023/07/25 04:35:25;;;;;;;19.63;8.43;;;768.70;1715.20;;;;;;5091970;28;20024;-54
2023/07/25 04:37:50;;;;;;;23.33;10.38;;;793.60;1740.80;;;;;;5091920;28;20028;-54
2023/07/25 04:40:16;;;;;;;16.33;12.38;;;793.70;1740.80;;;;;;5091573;28;20547;-54
2023/07/25 04:42:42;;;;;;;20.00;10.88;;;793.90;1740.80;;;;;;5091458;28;20378;-54
2023/07/25 04:45:08;;;;;;;22.77;11.27;;;794.00;1740.80;;;;;;5091527;28;20028;-58
2023/07/25 04:47:34;;;;;;;19.38;10.35;;;794.20;1766.40;;;;;;5091689;28;20040;-59
2023/07/25 04:50:00;;;;;;;17.00;8.73;;;794.20;1843.20;;;;;;5091468;28;20119;-54
2023/07/25 04:52:25;;;;;;;19.15;10.10;;;794.00;1817.60;;;;;;5091960;28;20099;-54
2023/07/25 04:54:55;;;;;;;17.55;8.88;;;819.80;1740.80;;;;;;5091341;28;20529;-55
2023/07/25 04:57:21;;;;;;;19.33;9.18;;;845.50;1664.00;;;;;;5090800;28;20466;-62
2023/07/25 04:59:47;;;;;;;17.75;10.57;;;871.10;1638.40;;;;;;5090904;28;20051;-55
2023/07/25 05:02:13;;;;;;;14.18;8.52;;;871.10;1664.00;;;;;;5091170;28;20042;-57
2023/07/25 05:04:38;;;;;;;18.38;9.48;;;896.20;1612.80;;;;;;5081806;28;20032;-57
2023/07/25 05:07:04;;;;;;;25.27;10.05;;;921.80;1561.60;;;;;;5078756;28;20024;-54
2023/07/25 05:09:30;;;;;;;20.23;9.50;;;947.20;1510.40;;;;;;5071101;28;20153;-54
2023/07/25 05:11:57;;;;;;;18.95;9.65;;;948.00;1484.80;;;;;;5088481;28;20091;-55
2023/07/25 05:14:23;;;;;;;21.63;10.05;;;948.10;1484.80;;;;;;5091266;28;20027;-54
2023/07/25 05:16:48;;;;;;;15.80;9.15;;;972.90;1484.80;;;;;;5090304;28;20031;-60
2023/07/25 05:19:14;;;;;;;16.95;9.32;;;972.80;1484.80;;;;;;5089412;28;20452;-54
2023/07/25 05:21:40;;;;;;;13.35;8.77;;;973.20;1484.80;;;;;;5090617;28;20133;-55
2023/07/25 05:24:05;;;;;;;12.90;8.52;;;973.60;1433.60;;;;;;5090987;28;20099;-61
2023/07/25 05:26:31;;;;;;;23.67;10.57;;;999.00;1433.60;;;;;;5091276;28;20458;-54
2023/07/25 05:28:57;;;;;;;16.23;10.38;;;1024.10;1408.00;;;;;;5090321;28;20089;-55
2023/07/25 05:31:22;;;;;;;15.73;10.32;;;1024.00;1408.00;;;;;;5089959;28;20030;-59
2023/07/25 05:33:48;;;;;;;20.30;10.40;;;1024.90;1356.80;;;;;;5087548;28;20040;-54
2023/07/25 05:36:14;;;;;;;16.70;10.52;;;1050.00;1356.80;;;;;;5080064;28;20035;-54
2023/07/25 05:38:40;;;;;;;17.88;10.73;;;1050.30;1331.20;;;;;;5090461;28;20031;-53
2023/07/25 05:41:06;;;;;;;19.30;11.50;;;1075.20;1331.20;;;;;;5088862;28;20024;-54
2023/07/25 05:43:32;;;;;;;18.17;11.00;;;1075.50;1305.60;;;;;;5090045;28;20081;-55
2023/07/25 05:45:58;;;;;;;17.83;11.48;;;1075.60;1305.60;;;;;;5089769;28;20118;-55
2023/07/25 05:48:23;;;;;;;22.58;13.75;;;1075.20;1331.20;;;;;;5089715;28;20131;-61
2023/07/25 05:50:51;;;;;;;24.38;11.63;;;1075.70;1305.60;;;;;;5089812;28;20518;-61
2023/07/25 05:53:17;;;;;;;20.20;12.85;;;1101.00;1280.00;;;;;;5089540;28;20379;-55
2023/07/25 05:55:46;;;;;;;19.48;12.25;;;1101.30;1280.00;;;;;;5089821;28;20028;-55
2023/07/25 05:58:15;;;;;;;19.90;12.23;;;1101.10;1305.60;;;;;;5090178;28;20032;-55
2023/07/25 06:00:42;;;;;;;19.67;13.20;;;1101.30;1280.00;;;;;;5089723;28;20040;-56
2023/07/25 06:03:11;;;;;;;22.33;12.70;;;1075.90;1280.00;;;;;;5090382;28;20042;-55
2023/07/25 06:05:37;;;;;;;20.48;13.35;;;1101.00;1280.00;;;;;;5090095;28;20032;-56
2023/07/25 06:08:03;;;;;;;15.50;12.50;;;1101.10;1280.00;;;;;;5090300;28;20024;-54
2023/07/25 06:10:29;;;;;;;20.58;13.85;;;1100.90;1305.60;;;;;;5090169;28;20382;-55
2023/07/25 06:12:55;;;;;;;21.98;13.10;;;1100.90;1305.60;;;;;;5088365;28;20027;-54
2023/07/25 06:15:21;;;;;;;23.60;14.05;;;1101.10;1305.60;;;;;;5077365;28;20036;-55
2023/07/25 06:17:46;;;;;;;18.75;13.85;;;1101.60;1280.00;;;;;;5089837;28;20024;-55
2023/07/25 06:20:13;;;;;;;18.70;14.05;;;1127.10;1228.80;;;;;;5089721;28;20120;-55
2023/07/25 06:22:38;;;;;;;18.65;14.13;;;1126.70;1280.00;;;;;;5090155;28;20024;-56
2023/07/25 06:25:07;;;;;;;17.77;14.15;;;1126.80;1280.00;;;;;;5089593;28;20016;-56
2023/07/25 06:27:33;;;;;;;16.38;14.45;;;1127.00;1254.40;;;;;;5089872;28;20028;-59
2023/07/25 06:29:59;;;;;;;20.58;16.27;;;1126.90;1280.00;;;;;;5089438;28;20734;-56
2023/07/25 06:32:24;;;;;;;18.95;15.32;;;1126.60;1305.60;;;;;;5089974;28;20112;-56
2023/07/25 06:34:50;;;;;;;22.17;15.13;;;1126.90;1280.00;;;;;;5089486;28;20103;-61
2023/07/25 06:37:17;;;;;;;20.10;14.85;;;1127.30;1254.40;;;;;;5089702;28;20046;-56
2023/07/25 06:39:43;;;;;;;17.77;15.63;;;1126.90;1280.00;;;;;;5089480;28;20027;-55
2023/07/25 06:42:09;;;;;;;20.25;15.18;;;;;;;;;;5089315;28;20077;-56
2023/07/25 06:44:35;;;;;;;19.88;15.98;;;1152.60;1228.80;;;;;;5088737;28;20428;-56
2023/07/25 06:47:00;;;;;;;20.45;17.40;;;1178.10;1177.60;;;;;;5089144;28;20115;-56
2023/07/25 06:49:26;;;;;;;20.90;16.00;;;1178.10;1177.60;;;;;;5089531;28;20107;-56
2023/07/25 06:51:55;;;;;;;20.40;15.32;;;1177.60;1203.20;;;;;;5089620;28;20016;-55
2023/07/25 06:54:21;;;;;;;19.95;16.05;;;1177.70;1203.20;;;;;;5089205;28;20028;-56
2023/07/25 06:56:47;;;;;;;23.63;17.48;;;1178.50;1126.40;;;;;;5089177;28;20031;-56
2023/07/25 06:59:13;;;;;;;22.00;17.50;;;1203.60;1177.60;;;;;;5089240;28;20032;-56
2023/07/25 07:01:39;;;;;;;17.60;15.88;;;1228.80;1152.00;;;;;;5089224;28;20417;-56
2023/07/25 07:04:05;;;;;;;27.15;18.45;;;1228.80;1152.00;;;;;;5089384;28;20550;-55
2023/07/25 07:06:30;;;;;;;19.65;17.77;;;1229.20;1126.40;;;;;;5089323;28;20027;-56
2023/07/25 07:08:56;;;;;;;22.80;17.85;;;1203.90;1152.00;;;;;;5089078;28;20792;-55
2023/07/25 07:11:22;;;;;;;19.27;17.33;;;1203.70;1152.00;;;;;;5089227;28;20024;-55
2023/07/25 07:13:47;;;;;;;22.40;17.30;;;1229.50;1126.40;;;;;;5088584;28;20599;-57
2023/07/25 07:16:14;;;;;;;20.75;17.33;;;1228.80;1177.60;;;;;;5088890;28;20027;-55
2023/07/25 07:18:40;;;;;;;20.50;16.33;;;1229.40;1126.40;;;;;;5088881;28;20035;-59
2023/07/25 07:21:05;;;;;;;22.10;16.75;;;1229.50;1126.40;;;;;;5089374;28;20028;-55
2023/07/25 07:23:31;;;;;;;23.30;17.95;;;1229.70;1126.40;;;;;;5088772;28;20027;-56
2023/07/25 07:25:57;;;;;;;23.02;17.35;;;1228.90;1152.00;;;;;;5088637;28;20024;-56
2023/07/25 07:28:23;;;;;;;21.00;17.30;;;1229.20;1126.40;;;;;;5088774;28;20028;-56
2023/07/25 07:30:49;;;;;;;18.13;16.20;;;1229.30;1152.00;;;;;;5088728;28;20501;-56
2023/07/25 07:33:16;;;;;;;19.08;17.25;;;1229.40;1126.40;;;;;;5089067;28;20024;-56
2023/07/25 07:35:41;;;;;;;25.75;17.45;;;1229.50;1152.00;;;;;;5088654;28;20035;-56
2023/07/25 07:38:07;;;;;;;23.73;17.98;;;1254.80;1126.40;;;;;;5088811;28;20024;-57
2023/07/25 07:40:35;;;;;;;21.70;16.02;;;1229.40;1126.40;;;;;;5088760;28;20036;-56
2023/07/25 07:43:00;;;;;;;17.23;15.40;;;1177.80;1177.60;;;;;;5088477;28;20024;-56
2023/07/25 07:45:27;;;;;;;17.75;15.27;;;1126.80;1228.80;;;;;;5088529;28;20047;-55
2023/07/25 07:47:53;;;;;;;17.40;14.73;;;1126.50;1254.40;;;;;;5088318;28;20085;-56
2023/07/25 07:50:19;;;;;;;18.40;14.45;;;1076.10;1254.40;;;;;;5088495;28;20416;-56
2023/07/25 07:52:45;;;;;;;21.08;15.23;;;1075.90;1254.40;;;;;;5088751;28;20107;-56
2023/07/25 07:55:13;;;;;;;22.27;14.68;;;1101.50;1280.00;;;;;;5088897;28;20052;-55
2023/07/25 07:57:40;;;;;;;21.13;14.90;;;1100.90;1331.20;;;;;;5092457;28;20020;-62
2023/07/25 08:00:07;;;;;;;20.00;13.98;;;1075.60;1305.60;;;;;;5092606;28;20071;-58
2023/07/25 08:02:32;;;;;;;21.88;14.57;;;1075.30;1305.60;;;;;;5092517;28;20023;-55
2023/07/25 08:04:58;;;;;;;24.15;15.18;;;1076.10;1254.40;;;;;;5092480;28;20032;-56
2023/07/25 08:07:24;;;;;;;19.08;15.18;;;1126.80;1228.80;;;;;;5092531;28;20032;-55
2023/07/25 08:09:54;;;;;;;19.80;15.07;;;1152.90;1177.60;;;;;;5092406;28;20020;-56
2023/07/25 08:12:20;;;;;;;19.20;17.17;;;1203.30;1152.00;;;;;;5078889;28;20024;-56
2023/07/25 08:14:45;;;;;;;20.95;16.58;;;1178.00;1177.60;;;;;;5092419;28;20059;-56
2023/07/25 08:17:11;;;;;;;18.95;15.48;;;1203.30;1152.00;;;;;;5078910;28;20382;-56
2023/07/25 08:19:36;;;;;;;21.00;16.88;;;1203.40;1177.60;;;;;;5092043;28;20032;-56
2023/07/25 08:22:02;;;;;;;17.27;13.85;;;1178.20;1126.40;;;;;;5092265;28;20466;-56
2023/07/25 08:24:28;;;;;;;25.75;17.42;;;1152.40;1203.20;;;;;;5092065;28;20024;-56
2023/07/25 08:26:54;;;;;;;23.58;16.20;;;1126.50;1280.00;;;;;;5092091;28;20016;-55
2023/07/25 08:29:19;;;;;;;24.00;16.33;;;1101.10;1280.00;;;;;;5092175;28;20119;-56
2023/07/25 08:31:45;;;;;;;25.05;16.02;;;1075.30;1305.60;;;;;;5091750;28;20549;-55
2023/07/25 08:34:11;;;;;;;22.80;15.48;;;1049.80;1356.80;;;;;;5091852;28;20109;-55
2023/07/25 08:36:36;;;;;;;24.13;15.15;;;1024.70;1382.40;;;;;;5092124;28;20012;-55
2023/07/25 08:39:02;;;;;;;20.10;14.32;;;1024.50;1408.00;;;;;;5091764;28;20044;-55
2023/07/25 08:41:32;;;;;;;21.83;13.95;;;998.80;1433.60;;;;;;5091720;28;20474;-56
2023/07/25 08:44:01;;;;;;;22.83;14.13;;;973.30;1484.80;;;;;;5091513;28;20039;-56
2023/07/25 08:46:28;;;;;;;23.30;15.48;;;973.70;1459.20;;;;;;5091431;28;20020;-56
2023/07/25 08:49:00;;;;;;;26.80;15.45;;;998.70;1536.00;;;;;;5091487;28;20051;-55
2023/07/25 08:51:28;;;;;;;27.42;14.45;;;973.70;1484.80;;;;;;5092099;28;20028;-55
2023/07/25 08:54:04;;;;;;;19.90;13.05;;;998.50;1484.80;;;;;;5091594;28;20036;-55
2023/07/25 08:56:31;;;;;;;23.73;15.57;;;998.70;1484.80;;;;;;5091445;28;20445;-55
2023/07/25 08:58:57;;;;;;;18.75;14.70;;;973.70;1459.20;;;;;;5090899;28;20116;-55
2023/07/25 09:01:24;;;;;;;21.63;13.38;;;973.70;1510.40;;;;;;5091309;28;20020;-55
2023/07/25 09:03:52;;;;;;;22.88;14.23;;;998.50;1510.40;;;;;;5091047;28;20036;-55
2023/07/25 09:06:19;;;;;;;25.35;13.10;;;998.70;1484.80;;;;;;5090750;28;20027;-56
2023/07/25 09:08:44;;;;;;;27.77;14.02;;;998.70;1484.80;;;;;;5091262;28;20048;-55
2023/07/25 09:11:10;;;;;;;19.10;13.88;;;999.10;1510.40;;;;;;5091108;28;20053;-56
2023/07/25 09:13:37;;;;;;;19.98;13.70;;;998.70;1587.20;;;;;;5091326;28;20497;-55
2023/07/25 09:16:04;;;;;;;23.98;14.65;;;973.70;1561.60;;;;;;5091047;28;20103;-55
2023/07/25 09:18:30;;;;;;;22.88;14.32;;;998.40;1587.20;;;;;;5091080;28;20063;-55
2023/07/25 09:20:55;;;;;;;23.85;13.77;;;998.70;1510.40;;;;;;5091125;28;20115;-55
2023/07/25 09:23:22;;;;;;;24.33;13.90;;;998.70;1536.00;;;;;;5089208;28;20027;-55
2023/07/25 09:25:49;;;;;;;23.10;13.05;;;998.80;1587.20;;;;;;5088965;28;20035;-56
2023/07/25 09:28:14;;;;;;;22.05;13.45;;;973.50;1510.40;;;;;;5089281;28;20432;-57
2023/07/25 09:30:48;;;;;;;24.30;15.80;;;998.40;1561.60;;;;;;5088931;28;20032;-56
2023/07/25 09:33:25;;;;;;;17.25;13.18;;;973.40;1536.00;;;;;;5089546;28;20024;-57
2023/07/25 09:35:52;;;;;;;28.40;14.35;;;973.40;1536.00;;;;;;5089297;28;20028;-55
2023/07/25 09:38:18;;;;;;;28.67;13.73;;;973.50;1510.40;;;;;;5088584;28;20020;-56
2023/07/25 09:40:46;;;;;;;27.58;14.13;;;973.30;1536.00;;;;;;5089219;28;20039;-55
2023/07/25 09:43:24;;;;;;;21.83;13.55;;;973.30;1536.00;;;;;;5089432;28;20027;-56
2023/07/25 09:45:51;;;;;;;26.63;14.23;;;973.50;1510.40;;;;;;5088600;28;20111;-56
2023/07/25 09:48:17;;;;;;;22.08;13.63;;;998.50;1536.00;;;;;;5088914;28;20669;-55
2023/07/25 09:50:46;;;;;;;22.85;14.55;;;998.50;1587.20;;;;;;5088645;28;20025;-57
2023/07/25 09:53:14;;;;;;;24.67;14.60;;;973.70;1587.20;;;;;;5089058;28;20074;-55
2023/07/25 09:55:40;;;;;;;25.33;14.85;;;973.40;1638.40;;;;;;5088480;28;20032;-57
2023/07/25 09:58:06;;;;;;;23.60;14.48;;;973.30;1638.40;;;;;;5088827;28;20035;-56
2023/07/25 10:00:32;;;;;;;24.60;14.73;;;973.40;1664.00;;;;;;5088519;28;20040;-56
2023/07/25 10:03:01;;;;;;;22.55;14.65;;;973.20;1689.60;;;;;;5088670;28;20055;-58
2023/07/25 10:05:30;;;;;;;18.63;14.15;;;948.10;1740.80;;;;;;5088506;28;20552;-57
2023/07/25 10:07:57;;;;;;;19.55;14.02;;;947.70;1715.20;;;;;;5088894;28;20024;-56
2023/07/25 10:10:24;;;;;;;23.20;14.65;;;947.40;1766.40;;;;;;5088756;28;20062;-58
2023/07/25 10:12:50;;;;;;;22.83;14.60;;;947.40;1792.00;;;;;;5088440;28;20482;-55
2023/07/25 10:15:17;;;;;;;28.42;15.73;;;947.50;1766.40;;;;;;5088811;28;20027;-56
2023/07/25 10:17:42;;;;;;;29.05;14.23;;;947.60;1740.80;;;;;;5087387;28;20024;-58
2023/07/25 10:20:08;;;;;;;21.30;13.77;;;947.70;1689.60;;;;;;5088030;28;20035;-57
2023/07/25 10:22:38;;;;;;;27.83;16.30;;;947.50;1638.40;;;;;;5088558;28;20382;-56
2023/07/25 10:25:10;;;;;;;27.40;15.10;;;947.30;1689.60;;;;;;5088021;28;20021;-58
2023/07/25 10:27:36;;;;;;;;;;;922.50;1689.60;;;;;;5088986;28;20035;-54
2023/07/25 10:30:02;;;;;;;25.88;14.98;;;922.10;1689.60;;;;;;5087791;28;19912;-56
2023/07/25 10:32:45;;;;;;;26.42;15.02;;;921.80;1715.20;;;;;;5088059;28;20505;-55
2023/07/25 10:35:10;;;;;;;;;;;922.00;1766.40;;;;;;5076476;28;20016;-56
2023/07/25 10:37:44;;;;;;;23.67;15.73;;;922.00;1792.00;;;;;;5088263;28;19911;-57
2023/07/25 10:40:16;;;;;;;28.20;15.13;;;922.20;1843.20;;;;;;5087850;28;20039;-56
2023/07/25 10:42:48;;;;;;;25.73;14.73;;;922.30;1868.80;;;;;;5087980;28;20107;-57
2023/07/25 10:45:28;;;;;;;22.48;14.68;;;922.40;1868.80;;;;;;5087526;28;20020;-56
2023/07/25 10:47:55;;;;;;;22.00;14.02;;;947.30;1843.20;;;;;;5087623;28;20036;-57
2023/07/25 10:50:47;;;;;;;23.95;14.15;;;947.40;1843.20;;;;;;5087879;28;20097;-59
2023/07/25 10:53:14;;;;;;;21.08;15.27;;;947.40;1817.60;;;;;;5074890;28;20024;-55
2023/07/25 10:56:02;;;;;;;24.48;15.48;;;947.60;1766.40;;;;;;5087781;28;20075;-57
2023/07/25 10:58:29;;;;;;;24.55;13.90;;;947.20;1792.00;;;;;;5087295;28;20024;-56
2023/07/25 11:00:54;;;;;;;26.60;14.90;;;922.50;1817.60;;;;;;5087457;28;20390;-57
2023/07/25 11:03:28;;;;;;;23.73;16.27;;;922.50;1843.20;;;;;;5087792;28;20024;-55
2023/07/25 11:06:23;;;;;;;25.67;16.05;;;922.50;1843.20;;;;;;5074576;28;20474;-58
2023/07/25 11:08:50;;;;;;;31.13;14.50;;;922.50;1894.40;;;;;;5057875;28;20055;-55
2023/07/25 11:11:16;;;;;;;22.83;15.32;;;922.40;1894.40;;;;;;5087073;28;20437;-56
2023/07/25 11:13:42;;;;;;;29.95;15.05;;;922.10;1920.00;;;;;;5087688;28;20043;-59
2023/07/25 11:16:10;;;;;;;26.90;16.42;;;922.10;1971.20;;;;;;5087282;28;20097;-59
2023/07/25 11:18:47;;;;;;;25.10;15.98;;;922.10;1920.00;;;;;;5087338;28;20594;-55
2023/07/25 11:21:13;;;;;;;23.73;16.17;;;922.00;1945.60;;;;;;5068611;28;20025;-57
2023/07/25 11:23:39;;;;;;;23.70;14.75;;;;;;;;;;5066710;28;20104;-60
2023/07/25 11:26:07;;;;;;;27.38;15.00;;;921.80;1920.00;;;;;;5067608;28;20394;-62
2023/07/25 11:28:33;;;;;;;26.45;14.93;;;896.90;1945.60;;;;;;5067505;28;20039;-55
2023/07/25 11:30:59;;;;;;;21.50;14.55;;;896.70;1996.80;;;;;;5067262;28;20032;-54
2023/07/25 11:33:25;;;;;;;19.23;12.95;;;896.60;2022.40;;;;;;5067681;28;20437;-54
2023/07/25 11:35:55;;;;;;;20.73;13.13;;;896.40;1996.80;;;;;;5066735;28;20538;-56
2023/07/25 11:38:21;;;;;;;22.40;13.43;;;871.20;2048.00;;;;;;5067207;28;20020;-58
2023/07/25 11:40:53;;;;;;;27.08;14.52;;;870.90;2073.60;;;;;;5067306;28;20036;-55
2023/07/25 11:43:19;;;;;;;19.30;12.98;;;871.00;2099.20;;;;;;5067446;28;20471;-54
2023/07/25 11:45:45;;;;;;;23.08;13.20;;;870.90;2124.80;;;;;;5067256;28;20039;-59
2023/07/25 11:48:14;;;;;;;24.00;14.60;;;870.70;2124.80;;;;;;5066942;28;20110;-58
2023/07/25 11:50:42;;;;;;;17.02;14.00;;;870.70;2150.40;;;;;;5066940;28;20028;-61
2023/07/25 11:53:09;;;;;;;26.05;13.95;;;870.60;2176.00;;;;;;5067144;28;20040;-55
2023/07/25 11:55:35;;;;;;;33.28;14.27;;;870.70;2150.40;;;;;;5067345;28;20043;-62
2023/07/25 11:58:04;;;;;;;25.08;14.27;;;870.50;2227.20;;;;;;5067080;28;20087;-55